sensor_id;sensor_type;location;lat;lon;timestamp;P1;durP1;ratioP1;P2;durP2;ratioP2
11024;SDS011;22890;51.820;8.682;2023-12-20T00:02:15;11.33;;;7.60;;
11024;SDS011;22890;51.820;8.682;2023-12-20T00:04:43;9.47;;;7.10;;
11024;SDS011;22890;51.820;8.682;2023-12-20T00:07:10;10.57;;;6.80;;
11024;SDS011;22890;51.820;8.682;2023-12-20T00:09:37;10.00;;;7.03;;
11024;SDS011;22890;51.820;8.682;2023-12-20T00:12:04;10.13;;;7.03;;
11024;SDS011;22890;51.820;8.682;2023-12-20T00:14:31;10.17;;;6.83;;
11024;SDS011;22890;51.820;8.682;2023-12-20T00:16:57;11.10;;;7.70;;
11024;SDS011;22890;51.820;8.682;2023-12-20T00:19:24;11.33;;;7.43;;
11024;SDS011;22890;51.820;8.682;2023-12-20T00:21:52;9.47;;;6.87;;
11024;SDS011;22890;51.820;8.682;2023-12-20T00:24:19;10.57;;;6.37;;
11024;SDS011;22890;51.820;8.682;2023-12-20T00:26:46;10.63;;;7.33;;
11024;SDS011;22890;51.820;8.682;2023-12-20T00:29:13;8.97;;;6.43;;
11024;SDS011;22890;51.820;8.682;2023-12-20T00:31:40;10.40;;;6.63;;
11024;SDS011;22890;51.820;8.682;2023-12-20T00:34:06;14.70;;;6.83;;
11024;SDS011;22890;51.820;8.682;2023-12-20T00:36:34;10.27;;;6.27;;
11024;SDS011;22890;51.820;8.682;2023-12-20T00:39:01;9.13;;;6.43;;
11024;SDS011;22890;51.820;8.682;2023-12-20T00:41:28;8.10;;;5.93;;
11024;SDS011;22890;51.820;8.682;2023-12-20T00:43:55;12.10;;;5.87;;
11024;SDS011;22890;51.820;8.682;2023-12-20T00:46:22;9.57;;;6.47;;
11024;SDS011;22890;51.820;8.682;2023-12-20T00:48:49;7.20;;;5.00;;
11024;SDS011;22890;51.820;8.682;2023-12-20T00:51:16;8.90;;;5.50;;
11024;SDS011;22890;51.820;8.682;2023-12-20T00:53:43;8.07;;;5.10;;
11024;SDS011;22890;51.820;8.682;2023-12-20T00:56:10;8.83;;;5.73;;
11024;SDS011;22890;51.820;8.682;2023-12-20T00:58:37;8.40;;;5.10;;
11024;SDS011;22890;51.820;8.682;2023-12-20T01:01:05;6.93;;;4.43;;
11024;SDS011;22890;51.820;8.682;2023-12-20T01:03:32;9.40;;;5.10;;
11024;SDS011;22890;51.820;8.682;2023-12-20T01:05:58;8.83;;;5.73;;
11024;SDS011;22890;51.820;8.682;2023-12-20T01:08:26;8.90;;;4.50;;
11024;SDS011;22890;51.820;8.682;2023-12-20T01:10:53;6.37;;;4.40;;
11024;SDS011;22890;51.820;8.682;2023-12-20T01:13:19;6.70;;;4.10;;
11024;SDS011;22890;51.820;8.682;2023-12-20T01:15:47;7.87;;;4.30;;
11024;SDS011;22890;51.820;8.682;2023-12-20T01:18:14;6.63;;;3.87;;
11024;SDS011;22890;51.820;8.682;2023-12-20T01:20:41;7.27;;;3.70;;
11024;SDS011;22890;51.820;8.682;2023-12-20T01:23:08;7.27;;;4.03;;
11024;SDS011;22890;51.820;8.682;2023-12-20T01:25:35;6.17;;;3.50;;
11024;SDS011;22890;51.820;8.682;2023-12-20T01:28:02;7.20;;;3.67;;
11024;SDS011;22890;51.820;8.682;2023-12-20T01:30:29;9.03;;;3.50;;
11024;SDS011;22890;51.820;8.682;2023-12-20T01:32:56;10.27;;;3.40;;
11024;SDS011;22890;51.820;8.682;2023-12-20T01:35:23;3.53;;;2.70;;
11024;SDS011;22890;51.820;8.682;2023-12-20T01:37:50;5.93;;;3.03;;
11024;SDS011;22890;51.820;8.682;2023-12-20T01:40:18;4.20;;;2.70;;
11024;SDS011;22890;51.820;8.682;2023-12-20T01:42:46;8.47;;;2.77;;
11024;SDS011;22890;51.820;8.682;2023-12-20T01:45:13;5.73;;;3.00;;
11024;SDS011;22890;51.820;8.682;2023-12-20T01:47:40;8.00;;;3.13;;
11024;SDS011;22890;51.820;8.682;2023-12-20T01:50:07;7.03;;;2.50;;
11024;SDS011;22890;51.820;8.682;2023-12-20T01:52:35;9.53;;;3.00;;
11024;SDS011;22890;51.820;8.682;2023-12-20T01:55:02;6.90;;;2.77;;
11024;SDS011;22890;51.820;8.682;2023-12-20T01:57:37;7.63;;;2.40;;
11024;SDS011;22890;51.820;8.682;2023-12-20T02:00:04;4.07;;;2.77;;
11024;SDS011;22890;51.820;8.682;2023-12-20T02:02:31;5.77;;;2.77;;
11024;SDS011;22890;51.820;8.682;2023-12-20T02:04:59;5.13;;;3.17;;
11024;SDS011;22890;51.820;8.682;2023-12-20T02:07:26;7.60;;;3.27;;
11024;SDS011;22890;51.820;8.682;2023-12-20T02:09:53;9.83;;;3.40;;
11024;SDS011;22890;51.820;8.682;2023-12-20T02:12:20;5.43;;;2.87;;
11024;SDS011;22890;51.820;8.682;2023-12-20T02:14:48;6.73;;;3.07;;
11024;SDS011;22890;51.820;8.682;2023-12-20T02:17:15;4.93;;;2.80;;
11024;SDS011;22890;51.820;8.682;2023-12-20T02:19:43;6.37;;;2.90;;
11024;SDS011;22890;51.820;8.682;2023-12-20T02:22:10;7.73;;;2.70;;
11024;SDS011;22890;51.820;8.682;2023-12-20T02:24:37;6.33;;;2.80;;
11024;SDS011;22890;51.820;8.682;2023-12-20T02:27:05;4.57;;;2.40;;
11024;SDS011;22890;51.820;8.682;2023-12-20T02:29:33;5.23;;;2.60;;
11024;SDS011;22890;51.820;8.682;2023-12-20T02:32:00;7.10;;;2.33;;
11024;SDS011;22890;51.820;8.682;2023-12-20T02:34:28;4.63;;;2.70;;
11024;SDS011;22890;51.820;8.682;2023-12-20T02:36:55;8.53;;;2.80;;
11024;SDS011;22890;51.820;8.682;2023-12-20T02:39:22;5.47;;;2.83;;
11024;SDS011;22890;51.820;8.682;2023-12-20T02:41:49;9.73;;;2.53;;
11024;SDS011;22890;51.820;8.682;2023-12-20T02:44:16;5.97;;;2.70;;
11024;SDS011;22890;51.820;8.682;2023-12-20T02:46:43;6.20;;;2.30;;
11024;SDS011;22890;51.820;8.682;2023-12-20T02:49:10;7.13;;;2.73;;
11024;SDS011;22890;51.820;8.682;2023-12-20T02:51:36;5.53;;;2.40;;
11024;SDS011;22890;51.820;8.682;2023-12-20T02:54:07;6.47;;;3.40;;
11024;SDS011;22890;51.820;8.682;2023-12-20T02:56:34;7.47;;;2.90;;
11024;SDS011;22890;51.820;8.682;2023-12-20T02:59:01;8.97;;;3.33;;
11024;SDS011;22890;51.820;8.682;2023-12-20T03:01:29;5.33;;;2.97;;
11024;SDS011;22890;51.820;8.682;2023-12-20T03:03:56;5.33;;;2.80;;
11024;SDS011;22890;51.820;8.682;2023-12-20T03:06:23;9.77;;;3.67;;
11024;SDS011;22890;51.820;8.682;2023-12-20T03:08:50;6.37;;;3.37;;
11024;SDS011;22890;51.820;8.682;2023-12-20T03:11:17;6.43;;;3.50;;
11024;SDS011;22890;51.820;8.682;2023-12-20T03:13:44;8.20;;;3.73;;
11024;SDS011;22890;51.820;8.682;2023-12-20T03:16:11;8.77;;;3.73;;
11024;SDS011;22890;51.820;8.682;2023-12-20T03:18:39;7.67;;;3.40;;
11024;SDS011;22890;51.820;8.682;2023-12-20T03:21:06;10.53;;;3.70;;
11024;SDS011;22890;51.820;8.682;2023-12-20T03:23:34;7.67;;;4.57;;
11024;SDS011;22890;51.820;8.682;2023-12-20T03:26:01;10.73;;;4.20;;
11024;SDS011;22890;51.820;8.682;2023-12-20T03:28:28;8.63;;;3.90;;
11024;SDS011;22890;51.820;8.682;2023-12-20T03:30:55;12.83;;;4.60;;
11024;SDS011;22890;51.820;8.682;2023-12-20T03:33:22;13.47;;;4.57;;
11024;SDS011;22890;51.820;8.682;2023-12-20T03:35:48;9.50;;;4.93;;
11024;SDS011;22890;51.820;8.682;2023-12-20T03:38:16;17.07;;;5.20;;
11024;SDS011;22890;51.820;8.682;2023-12-20T03:40:43;12.00;;;4.70;;
11024;SDS011;22890;51.820;8.682;2023-12-20T03:43:10;7.83;;;4.90;;
11024;SDS011;22890;51.820;8.682;2023-12-20T03:45:37;12.00;;;4.93;;
11024;SDS011;22890;51.820;8.682;2023-12-20T03:48:04;8.87;;;4.90;;
11024;SDS011;22890;51.820;8.682;2023-12-20T03:50:31;13.07;;;4.30;;
11024;SDS011;22890;51.820;8.682;2023-12-20T03:52:59;11.60;;;5.10;;
11024;SDS011;22890;51.820;8.682;2023-12-20T03:55:26;9.50;;;4.87;;
11024;SDS011;22890;51.820;8.682;2023-12-20T03:57:53;7.53;;;4.17;;
11024;SDS011;22890;51.820;8.682;2023-12-20T04:00:20;11.00;;;4.10;;
11024;SDS011;22890;51.820;8.682;2023-12-20T04:02:47;8.20;;;4.57;;
11024;SDS011;22890;51.820;8.682;2023-12-20T04:05:14;9.00;;;4.87;;
11024;SDS011;22890;51.820;8.682;2023-12-20T04:07:41;9.50;;;5.00;;
11024;SDS011;22890;51.820;8.682;2023-12-20T04:10:08;10.73;;;3.97;;
11024;SDS011;22890;51.820;8.682;2023-12-20T04:12:35;10.93;;;5.00;;
11024;SDS011;22890;51.820;8.682;2023-12-20T04:15:02;10.73;;;4.30;;
11024;SDS011;22890;51.820;8.682;2023-12-20T04:17:35;10.57;;;4.57;;
11024;SDS011;22890;51.820;8.682;2023-12-20T04:20:02;13.97;;;4.27;;
11024;SDS011;22890;51.820;8.682;2023-12-20T04:22:30;12.30;;;4.50;;
11024;SDS011;22890;51.820;8.682;2023-12-20T04:24:56;9.40;;;4.73;;
11024;SDS011;22890;51.820;8.682;2023-12-20T04:27:24;7.17;;;4.07;;
11024;SDS011;22890;51.820;8.682;2023-12-20T04:29:51;11.77;;;4.20;;
11024;SDS011;22890;51.820;8.682;2023-12-20T04:32:17;12.50;;;5.80;;
11024;SDS011;22890;51.820;8.682;2023-12-20T04:34:44;15.93;;;4.60;;
11024;SDS011;22890;51.820;8.682;2023-12-20T04:37:11;9.13;;;4.00;;
11024;SDS011;22890;51.820;8.682;2023-12-20T04:39:38;12.07;;;4.20;;
11024;SDS011;22890;51.820;8.682;2023-12-20T04:42:07;11.77;;;3.53;;
11024;SDS011;22890;51.820;8.682;2023-12-20T04:44:34;12.23;;;4.30;;
11024;SDS011;22890;51.820;8.682;2023-12-20T04:47:01;17.23;;;5.03;;
11024;SDS011;22890;51.820;8.682;2023-12-20T04:49:28;9.63;;;3.50;;
11024;SDS011;22890;51.820;8.682;2023-12-20T04:51:55;10.33;;;3.83;;
11024;SDS011;22890;51.820;8.682;2023-12-20T04:54:22;10.90;;;4.33;;
11024;SDS011;22890;51.820;8.682;2023-12-20T04:56:49;11.17;;;4.10;;
11024;SDS011;22890;51.820;8.682;2023-12-20T04:59:16;14.17;;;3.63;;
11024;SDS011;22890;51.820;8.682;2023-12-20T05:01:43;9.23;;;3.50;;
11024;SDS011;22890;51.820;8.682;2023-12-20T05:04:10;12.07;;;4.30;;
11024;SDS011;22890;51.820;8.682;2023-12-20T05:06:38;10.00;;;3.80;;
11024;SDS011;22890;51.820;8.682;2023-12-20T05:09:05;9.03;;;3.30;;
11024;SDS011;22890;51.820;8.682;2023-12-20T05:11:32;9.23;;;3.47;;
11024;SDS011;22890;51.820;8.682;2023-12-20T05:13:59;12.90;;;3.67;;
11024;SDS011;22890;51.820;8.682;2023-12-20T05:16:26;18.53;;;3.67;;
11024;SDS011;22890;51.820;8.682;2023-12-20T05:18:53;9.77;;;3.63;;
11024;SDS011;22890;51.820;8.682;2023-12-20T05:21:20;14.17;;;4.40;;
11024;SDS011;22890;51.820;8.682;2023-12-20T05:23:47;10.63;;;3.20;;
11024;SDS011;22890;51.820;8.682;2023-12-20T05:26:14;12.63;;;3.50;;
11024;SDS011;22890;51.820;8.682;2023-12-20T05:28:41;12.13;;;3.87;;
11024;SDS011;22890;51.820;8.682;2023-12-20T05:31:08;16.80;;;3.60;;
11024;SDS011;22890;51.820;8.682;2023-12-20T05:33:35;10.53;;;3.60;;
11024;SDS011;22890;51.820;8.682;2023-12-20T05:36:03;10.77;;;3.50;;
11024;SDS011;22890;51.820;8.682;2023-12-20T05:38:30;11.63;;;4.20;;
11024;SDS011;22890;51.820;8.682;2023-12-20T05:40:57;12.73;;;4.47;;
11024;SDS011;22890;51.820;8.682;2023-12-20T05:43:25;15.47;;;4.93;;
11024;SDS011;22890;51.820;8.682;2023-12-20T05:45:52;9.70;;;3.73;;
11024;SDS011;22890;51.820;8.682;2023-12-20T05:48:18;10.80;;;4.20;;
11024;SDS011;22890;51.820;8.682;2023-12-20T05:50:46;16.37;;;4.07;;
11024;SDS011;22890;51.820;8.682;2023-12-20T05:53:13;11.87;;;4.53;;
11024;SDS011;22890;51.820;8.682;2023-12-20T05:55:39;14.70;;;5.40;;
11024;SDS011;22890;51.820;8.682;2023-12-20T05:58:07;10.97;;;3.93;;
11024;SDS011;22890;51.820;8.682;2023-12-20T06:00:33;11.23;;;4.13;;
11024;SDS011;22890;51.820;8.682;2023-12-20T06:03:00;12.70;;;4.57;;
11024;SDS011;22890;51.820;8.682;2023-12-20T06:05:28;6.90;;;3.70;;
11024;SDS011;22890;51.820;8.682;2023-12-20T06:07:55;12.07;;;4.60;;
11024;SDS011;22890;51.820;8.682;2023-12-20T06:10:27;10.63;;;4.70;;
11024;SDS011;22890;51.820;8.682;2023-12-20T06:12:54;11.37;;;4.37;;
11024;SDS011;22890;51.820;8.682;2023-12-20T06:15:22;17.60;;;5.33;;
11024;SDS011;22890;51.820;8.682;2023-12-20T06:17:49;11.87;;;4.53;;
11024;SDS011;22890;51.820;8.682;2023-12-20T06:20:17;16.17;;;5.57;;
11024;SDS011;22890;51.820;8.682;2023-12-20T06:22:44;17.30;;;5.90;;
11024;SDS011;22890;51.820;8.682;2023-12-20T06:25:11;11.13;;;5.97;;
11024;SDS011;22890;51.820;8.682;2023-12-20T06:27:38;16.57;;;5.93;;
11024;SDS011;22890;51.820;8.682;2023-12-20T06:30:07;21.57;;;6.80;;
11024;SDS011;22890;51.820;8.682;2023-12-20T06:32:37;14.10;;;5.50;;
11024;SDS011;22890;51.820;8.682;2023-12-20T06:35:05;12.50;;;6.07;;
11024;SDS011;22890;51.820;8.682;2023-12-20T06:37:33;12.97;;;4.77;;
11024;SDS011;22890;51.820;8.682;2023-12-20T06:40:00;17.53;;;5.97;;
11024;SDS011;22890;51.820;8.682;2023-12-20T06:42:27;14.30;;;5.40;;
11024;SDS011;22890;51.820;8.682;2023-12-20T06:44:56;19.27;;;6.13;;
11024;SDS011;22890;51.820;8.682;2023-12-20T06:47:23;13.73;;;6.90;;
11024;SDS011;22890;51.820;8.682;2023-12-20T06:49:50;16.10;;;6.60;;
11024;SDS011;22890;51.820;8.682;2023-12-20T06:52:17;15.13;;;6.80;;
11024;SDS011;22890;51.820;8.682;2023-12-20T06:54:45;19.03;;;6.73;;
11024;SDS011;22890;51.820;8.682;2023-12-20T06:57:12;14.70;;;5.80;;
11024;SDS011;22890;51.820;8.682;2023-12-20T06:59:40;13.33;;;6.53;;
11024;SDS011;22890;51.820;8.682;2023-12-20T07:02:08;18.33;;;6.63;;
11024;SDS011;22890;51.820;8.682;2023-12-20T07:04:40;17.57;;;6.13;;
11024;SDS011;22890;51.820;8.682;2023-12-20T07:07:07;19.17;;;6.73;;
11024;SDS011;22890;51.820;8.682;2023-12-20T07:09:34;19.20;;;6.93;;
11024;SDS011;22890;51.820;8.682;2023-12-20T07:12:01;20.60;;;7.03;;
11024;SDS011;22890;51.820;8.682;2023-12-20T07:14:28;18.80;;;6.63;;
11024;SDS011;22890;51.820;8.682;2023-12-20T07:16:55;14.17;;;6.93;;
11024;SDS011;22890;51.820;8.682;2023-12-20T07:19:23;20.13;;;7.90;;
11024;SDS011;22890;51.820;8.682;2023-12-20T07:21:50;17.80;;;6.97;;
11024;SDS011;22890;51.820;8.682;2023-12-20T07:24:17;18.67;;;7.67;;
11024;SDS011;22890;51.820;8.682;2023-12-20T07:26:44;19.80;;;8.30;;
11024;SDS011;22890;51.820;8.682;2023-12-20T07:29:12;14.90;;;7.30;;
11024;SDS011;22890;51.820;8.682;2023-12-20T07:31:39;18.97;;;8.20;;
11024;SDS011;22890;51.820;8.682;2023-12-20T07:34:05;16.93;;;7.13;;
11024;SDS011;22890;51.820;8.682;2023-12-20T07:36:33;15.50;;;7.63;;
11024;SDS011;22890;51.820;8.682;2023-12-20T07:39:00;19.17;;;8.33;;
11024;SDS011;22890;51.820;8.682;2023-12-20T07:41:27;19.60;;;7.60;;
11024;SDS011;22890;51.820;8.682;2023-12-20T07:43:54;18.60;;;7.83;;
11024;SDS011;22890;51.820;8.682;2023-12-20T07:46:22;16.17;;;7.10;;
11024;SDS011;22890;51.820;8.682;2023-12-20T07:48:49;21.43;;;7.47;;
11024;SDS011;22890;51.820;8.682;2023-12-20T07:51:17;16.07;;;8.03;;
11024;SDS011;22890;51.820;8.682;2023-12-20T07:53:43;23.80;;;8.63;;
11024;SDS011;22890;51.820;8.682;2023-12-20T07:56:17;18.30;;;8.57;;
11024;SDS011;22890;51.820;8.682;2023-12-20T07:58:45;16.03;;;7.97;;
11024;SDS011;22890;51.820;8.682;2023-12-20T08:01:18;20.63;;;8.20;;
11024;SDS011;22890;51.820;8.682;2023-12-20T08:03:47;16.30;;;7.73;;
11024;SDS011;22890;51.820;8.682;2023-12-20T08:06:15;19.90;;;7.37;;
11024;SDS011;22890;51.820;8.682;2023-12-20T08:08:43;19.10;;;7.37;;
11024;SDS011;22890;51.820;8.682;2023-12-20T08:11:10;21.70;;;7.63;;
11024;SDS011;22890;51.820;8.682;2023-12-20T08:13:37;15.93;;;7.33;;
11024;SDS011;22890;51.820;8.682;2023-12-20T08:16:04;10.53;;;6.27;;
11024;SDS011;22890;51.820;8.682;2023-12-20T08:18:32;18.83;;;8.50;;
11024;SDS011;22890;51.820;8.682;2023-12-20T08:20:58;16.47;;;7.47;;
11024;SDS011;22890;51.820;8.682;2023-12-20T08:23:26;20.43;;;7.40;;
11024;SDS011;22890;51.820;8.682;2023-12-20T08:25:55;17.70;;;7.80;;
11024;SDS011;22890;51.820;8.682;2023-12-20T08:28:23;14.50;;;8.07;;
11024;SDS011;22890;51.820;8.682;2023-12-20T08:30:50;20.30;;;8.00;;
11024;SDS011;22890;51.820;8.682;2023-12-20T08:33:20;18.60;;;7.27;;
11024;SDS011;22890;51.820;8.682;2023-12-20T08:35:47;26.93;;;8.80;;
11024;SDS011;22890;51.820;8.682;2023-12-20T08:38:14;23.80;;;7.13;;
11024;SDS011;22890;51.820;8.682;2023-12-20T08:40:43;15.37;;;7.07;;
11024;SDS011;22890;51.820;8.682;2023-12-20T08:43:10;20.50;;;7.13;;
11024;SDS011;22890;51.820;8.682;2023-12-20T08:45:37;14.83;;;6.87;;
11024;SDS011;22890;51.820;8.682;2023-12-20T08:48:05;18.87;;;7.43;;
11024;SDS011;22890;51.820;8.682;2023-12-20T08:50:35;17.77;;;6.70;;
11024;SDS011;22890;51.820;8.682;2023-12-20T08:53:03;19.33;;;6.97;;
11024;SDS011;22890;51.820;8.682;2023-12-20T08:55:30;16.87;;;7.40;;
11024;SDS011;22890;51.820;8.682;2023-12-20T08:57:58;16.67;;;8.60;;
11024;SDS011;22890;51.820;8.682;2023-12-20T09:00:25;15.43;;;7.17;;
11024;SDS011;22890;51.820;8.682;2023-12-20T09:02:54;20.57;;;7.00;;
11024;SDS011;22890;51.820;8.682;2023-12-20T09:05:21;16.27;;;7.90;;
11024;SDS011;22890;51.820;8.682;2023-12-20T09:07:49;16.23;;;6.17;;
11024;SDS011;22890;51.820;8.682;2023-12-20T09:10:16;16.23;;;7.13;;
11024;SDS011;22890;51.820;8.682;2023-12-20T09:12:49;16.87;;;7.43;;
11024;SDS011;22890;51.820;8.682;2023-12-20T09:15:17;17.67;;;7.43;;
11024;SDS011;22890;51.820;8.682;2023-12-20T09:17:43;15.80;;;7.10;;
11024;SDS011;22890;51.820;8.682;2023-12-20T09:20:11;15.90;;;7.90;;
11024;SDS011;22890;51.820;8.682;2023-12-20T09:22:40;18.73;;;7.23;;
11024;SDS011;22890;51.820;8.682;2023-12-20T09:25:09;23.27;;;7.67;;
11024;SDS011;22890;51.820;8.682;2023-12-20T09:27:37;19.40;;;7.07;;
11024;SDS011;22890;51.820;8.682;2023-12-20T09:30:04;21.33;;;7.53;;
11024;SDS011;22890;51.820;8.682;2023-12-20T09:32:31;13.57;;;6.87;;
11024;SDS011;22890;51.820;8.682;2023-12-20T09:34:59;19.03;;;6.20;;
11024;SDS011;22890;51.820;8.682;2023-12-20T09:37:26;16.60;;;7.47;;
11024;SDS011;22890;51.820;8.682;2023-12-20T09:39:53;16.00;;;7.00;;
11024;SDS011;22890;51.820;8.682;2023-12-20T09:42:23;21.20;;;8.90;;
11024;SDS011;22890;51.820;8.682;2023-12-20T09:44:55;18.13;;;9.10;;
11024;SDS011;22890;51.820;8.682;2023-12-20T09:47:26;23.83;;;8.10;;
11024;SDS011;22890;51.820;8.682;2023-12-20T09:49:53;19.47;;;7.70;;
11024;SDS011;22890;51.820;8.682;2023-12-20T09:52:21;16.70;;;7.23;;
11024;SDS011;22890;51.820;8.682;2023-12-20T09:54:50;20.57;;;8.40;;
11024;SDS011;22890;51.820;8.682;2023-12-20T09:57:19;16.17;;;7.33;;
11024;SDS011;22890;51.820;8.682;2023-12-20T09:59:46;19.27;;;7.87;;
11024;SDS011;22890;51.820;8.682;2023-12-20T10:02:13;18.87;;;8.97;;
11024;SDS011;22890;51.820;8.682;2023-12-20T10:04:42;18.20;;;7.43;;
11024;SDS011;22890;51.820;8.682;2023-12-20T10:07:13;21.77;;;9.00;;
11024;SDS011;22890;51.820;8.682;2023-12-20T10:09:40;19.87;;;8.83;;
11024;SDS011;22890;51.820;8.682;2023-12-20T10:12:08;26.43;;;9.80;;
11024;SDS011;22890;51.820;8.682;2023-12-20T10:14:34;14.60;;;8.33;;
11024;SDS011;22890;51.820;8.682;2023-12-20T10:17:05;14.00;;;7.03;;
11024;SDS011;22890;51.820;8.682;2023-12-20T10:19:32;17.87;;;7.80;;
11024;SDS011;22890;51.820;8.682;2023-12-20T10:21:59;14.20;;;6.63;;
11024;SDS011;22890;51.820;8.682;2023-12-20T10:24:30;15.30;;;7.60;;
11024;SDS011;22890;51.820;8.682;2023-12-20T10:27:06;18.17;;;7.10;;
11024;SDS011;22890;51.820;8.682;2023-12-20T10:29:37;12.57;;;7.50;;
11024;SDS011;22890;51.820;8.682;2023-12-20T10:34:53;21.13;;;8.17;;
11024;SDS011;22890;51.820;8.682;2023-12-20T10:37:21;19.00;;;8.03;;
11024;SDS011;22890;51.820;8.682;2023-12-20T10:39:52;18.60;;;7.00;;
11024;SDS011;22890;51.820;8.682;2023-12-20T10:42:27;15.87;;;7.37;;
11024;SDS011;22890;51.820;8.682;2023-12-20T10:44:55;29.83;;;12.37;;
11024;SDS011;22890;51.820;8.682;2023-12-20T10:47:22;18.97;;;9.47;;
11024;SDS011;22890;51.820;8.682;2023-12-20T10:49:51;13.57;;;6.57;;
11024;SDS011;22890;51.820;8.682;2023-12-20T10:52:19;26.57;;;8.00;;
11024;SDS011;22890;51.820;8.682;2023-12-20T10:54:46;15.00;;;7.60;;
11024;SDS011;22890;51.820;8.682;2023-12-20T10:57:14;16.43;;;7.70;;
11024;SDS011;22890;51.820;8.682;2023-12-20T10:59:43;22.90;;;7.17;;
11024;SDS011;22890;51.820;8.682;2023-12-20T11:02:16;13.47;;;6.73;;
11024;SDS011;22890;51.820;8.682;2023-12-20T11:04:52;19.77;;;8.07;;
11024;SDS011;22890;51.820;8.682;2023-12-20T11:07:34;18.37;;;8.00;;
11024;SDS011;22890;51.820;8.682;2023-12-20T11:10:19;14.37;;;7.93;;
11024;SDS011;22890;51.820;8.682;2023-12-20T11:12:53;25.57;;;8.33;;
11024;SDS011;22890;51.820;8.682;2023-12-20T11:15:25;17.47;;;7.67;;
11024;SDS011;22890;51.820;8.682;2023-12-20T11:17:57;16.03;;;7.63;;
11024;SDS011;22890;51.820;8.682;2023-12-20T11:20:35;11.07;;;7.23;;
11024;SDS011;22890;51.820;8.682;2023-12-20T11:23:06;18.57;;;7.40;;
11024;SDS011;22890;51.820;8.682;2023-12-20T11:25:46;12.50;;;7.37;;
11024;SDS011;22890;51.820;8.682;2023-12-20T11:28:15;15.43;;;7.47;;
11024;SDS011;22890;51.820;8.682;2023-12-20T11:30:47;14.07;;;6.97;;
11024;SDS011;22890;51.820;8.682;2023-12-20T11:33:25;17.77;;;7.77;;
11024;SDS011;22890;51.820;8.682;2023-12-20T11:35:56;16.27;;;6.67;;
11024;SDS011;22890;51.820;8.682;2023-12-20T11:38:24;14.20;;;6.40;;
11024;SDS011;22890;51.820;8.682;2023-12-20T11:40:53;13.77;;;7.17;;
11024;SDS011;22890;51.820;8.682;2023-12-20T11:43:35;18.97;;;8.57;;
11024;SDS011;22890;51.820;8.682;2023-12-20T11:46:02;17.27;;;6.10;;
11024;SDS011;22890;51.820;8.682;2023-12-20T11:48:31;18.67;;;6.90;;
11024;SDS011;22890;51.820;8.682;2023-12-20T11:50:59;15.60;;;7.27;;
11024;SDS011;22890;51.820;8.682;2023-12-20T11:53:26;16.33;;;6.47;;
11024;SDS011;22890;51.820;8.682;2023-12-20T11:55:53;20.67;;;7.17;;
11024;SDS011;22890;51.820;8.682;2023-12-20T11:58:20;12.70;;;6.73;;
11024;SDS011;22890;51.820;8.682;2023-12-20T12:00:48;16.63;;;5.90;;
11024;SDS011;22890;51.820;8.682;2023-12-20T12:03:16;12.77;;;5.63;;
11024;SDS011;22890;51.820;8.682;2023-12-20T12:05:45;8.70;;;4.40;;
11024;SDS011;22890;51.820;8.682;2023-12-20T12:08:16;13.40;;;4.73;;
11024;SDS011;22890;51.820;8.682;2023-12-20T12:10:44;8.93;;;4.13;;
11024;SDS011;22890;51.820;8.682;2023-12-20T12:13:11;10.03;;;4.33;;
11024;SDS011;22890;51.820;8.682;2023-12-20T12:15:40;8.87;;;4.03;;
11024;SDS011;22890;51.820;8.682;2023-12-20T12:18:08;16.47;;;4.63;;
11024;SDS011;22890;51.820;8.682;2023-12-20T12:20:36;13.57;;;4.53;;
11024;SDS011;22890;51.820;8.682;2023-12-20T12:23:04;9.07;;;4.40;;
11024;SDS011;22890;51.820;8.682;2023-12-20T12:25:32;15.07;;;5.23;;
11024;SDS011;22890;51.820;8.682;2023-12-20T12:28:06;12.17;;;4.97;;
11024;SDS011;22890;51.820;8.682;2023-12-20T12:30:33;10.67;;;4.57;;
11024;SDS011;22890;51.820;8.682;2023-12-20T12:33:11;14.90;;;4.53;;
11024;SDS011;22890;51.820;8.682;2023-12-20T12:35:39;8.60;;;4.17;;
11024;SDS011;22890;51.820;8.682;2023-12-20T12:38:06;13.07;;;4.90;;
11024;SDS011;22890;51.820;8.682;2023-12-20T12:40:34;19.13;;;5.47;;
11024;SDS011;22890;51.820;8.682;2023-12-20T12:43:02;13.47;;;5.67;;
11024;SDS011;22890;51.820;8.682;2023-12-20T12:45:30;8.63;;;4.73;;
11024;SDS011;22890;51.820;8.682;2023-12-20T12:47:58;13.50;;;5.17;;
11024;SDS011;22890;51.820;8.682;2023-12-20T12:50:25;12.93;;;5.27;;
11024;SDS011;22890;51.820;8.682;2023-12-20T12:52:55;13.53;;;5.50;;
11024;SDS011;22890;51.820;8.682;2023-12-20T12:55:22;9.87;;;4.50;;
11024;SDS011;22890;51.820;8.682;2023-12-20T12:57:49;10.67;;;5.70;;
11024;SDS011;22890;51.820;8.682;2023-12-20T13:00:16;14.70;;;5.07;;
11024;SDS011;22890;51.820;8.682;2023-12-20T13:02:43;7.47;;;3.97;;
11024;SDS011;22890;51.820;8.682;2023-12-20T13:05:10;12.93;;;5.00;;
11024;SDS011;22890;51.820;8.682;2023-12-20T13:07:37;10.77;;;4.53;;
11024;SDS011;22890;51.820;8.682;2023-12-20T13:10:05;10.33;;;4.23;;
11024;SDS011;22890;51.820;8.682;2023-12-20T13:12:33;17.33;;;5.10;;
11024;SDS011;22890;51.820;8.682;2023-12-20T13:15:00;9.33;;;4.87;;
11024;SDS011;22890;51.820;8.682;2023-12-20T13:17:27;10.47;;;4.30;;
11024;SDS011;22890;51.820;8.682;2023-12-20T13:19:57;10.27;;;4.90;;
11024;SDS011;22890;51.820;8.682;2023-12-20T13:22:26;12.83;;;4.20;;
11024;SDS011;22890;51.820;8.682;2023-12-20T13:24:54;11.10;;;4.63;;
11024;SDS011;22890;51.820;8.682;2023-12-20T13:27:21;12.13;;;3.97;;
11024;SDS011;22890;51.820;8.682;2023-12-20T13:29:49;12.47;;;4.30;;
11024;SDS011;22890;51.820;8.682;2023-12-20T13:32:16;14.30;;;4.27;;
11024;SDS011;22890;51.820;8.682;2023-12-20T13:34:45;8.60;;;3.90;;
11024;SDS011;22890;51.820;8.682;2023-12-20T13:37:13;8.83;;;4.13;;
11024;SDS011;22890;51.820;8.682;2023-12-20T13:39:40;8.17;;;3.30;;
11024;SDS011;22890;51.820;8.682;2023-12-20T13:42:07;7.20;;;3.33;;
11024;SDS011;22890;51.820;8.682;2023-12-20T13:44:34;8.07;;;2.83;;
11024;SDS011;22890;51.820;8.682;2023-12-20T13:47:01;11.47;;;3.13;;
11024;SDS011;22890;51.820;8.682;2023-12-20T13:49:29;5.47;;;2.97;;
11024;SDS011;22890;51.820;8.682;2023-12-20T13:51:56;9.00;;;3.57;;
11024;SDS011;22890;51.820;8.682;2023-12-20T13:54:24;10.67;;;3.50;;
11024;SDS011;22890;51.820;8.682;2023-12-20T13:56:51;9.83;;;3.23;;
11024;SDS011;22890;51.820;8.682;2023-12-20T13:59:37;10.40;;;2.70;;
11024;SDS011;22890;51.820;8.682;2023-12-20T14:02:04;7.97;;;2.90;;
11024;SDS011;22890;51.820;8.682;2023-12-20T14:04:32;13.10;;;4.40;;
11024;SDS011;22890;51.820;8.682;2023-12-20T14:07:08;14.17;;;4.50;;
11024;SDS011;22890;51.820;8.682;2023-12-20T14:09:37;5.47;;;2.23;;
11024;SDS011;22890;51.820;8.682;2023-12-20T14:12:04;2.80;;;1.00;;
11024;SDS011;22890;51.820;8.682;2023-12-20T14:14:32;1.17;;;0.73;;
11024;SDS011;22890;51.820;8.682;2023-12-20T14:16:59;2.93;;;1.30;;
11024;SDS011;22890;51.820;8.682;2023-12-20T14:19:26;3.00;;;0.97;;
11024;SDS011;22890;51.820;8.682;2023-12-20T14:21:53;4.47;;;1.50;;
11024;SDS011;22890;51.820;8.682;2023-12-20T14:24:21;3.13;;;1.17;;
11024;SDS011;22890;51.820;8.682;2023-12-20T14:26:48;5.60;;;1.63;;
11024;SDS011;22890;51.820;8.682;2023-12-20T14:29:15;3.83;;;1.80;;
11024;SDS011;22890;51.820;8.682;2023-12-20T14:31:42;2.33;;;1.20;;
11024;SDS011;22890;51.820;8.682;2023-12-20T14:34:09;4.53;;;1.67;;
11024;SDS011;22890;51.820;8.682;2023-12-20T14:36:37;4.63;;;2.50;;
11024;SDS011;22890;51.820;8.682;2023-12-20T14:39:04;2.00;;;1.50;;
11024;SDS011;22890;51.820;8.682;2023-12-20T14:41:31;4.07;;;2.13;;
11024;SDS011;22890;51.820;8.682;2023-12-20T14:43:58;3.97;;;2.93;;
11024;SDS011;22890;51.820;8.682;2023-12-20T14:46:31;3.47;;;1.90;;